createdAt,value
2023-04-01T00:00:13.322Z,77.85
2023-04-01T00:02:44.863Z,77.53
2023-04-01T00:05:17.656Z,77.65
2023-04-01T00:07:49.071Z,77.41
2023-04-01T00:10:20.555Z,77.27
2023-04-01T00:12:51.888Z,77.17
2023-04-01T00:15:23.446Z,76.86
2023-04-01T00:17:55.426Z,76.85
2023-04-01T00:20:27.178Z,76.86
2023-04-01T00:22:58.608Z,77.21
2023-04-01T00:25:30.381Z,77.87
2023-04-01T00:28:02.947Z,77.90
2023-04-01T00:30:34.469Z,77.60
2023-04-01T00:33:05.992Z,77.83
2023-04-01T00:35:37.860Z,77.32
2023-04-01T00:38:09.321Z,77.59
2023-04-01T00:40:44.512Z,77.70
2023-04-01T00:43:19.325Z,77.54
2023-04-01T00:45:50.976Z,77.58
2023-04-01T00:48:34.318Z,77.58
2023-04-01T00:51:08.384Z,77.83
2023-04-01T00:53:42.489Z,77.87
2023-04-01T00:56:16.604Z,77.40
2023-04-01T00:58:51.631Z,77.25
2023-04-01T01:01:24.984Z,76.95
2023-04-01T01:03:56.491Z,76.77
2023-04-01T01:06:43.225Z,76.60
2023-04-01T01:09:28.593Z,76.86
2023-04-01T01:12:06.019Z,76.13
2023-04-01T01:14:37.362Z,75.47
2023-04-01T01:17:11.496Z,75.77
2023-04-01T01:19:49.090Z,75.20
2023-04-01T01:22:28.421Z,75.84
2023-04-01T01:25:18.669Z,75.35
2023-04-01T01:27:55.728Z,75.34
2023-04-01T01:30:54.833Z,75.53
2023-04-01T01:33:26.420Z,75.42
2023-04-01T01:36:00.359Z,75.55
2023-04-01T01:38:34.215Z,75.57
2023-04-01T01:41:07.461Z,75.55
2023-04-01T01:43:43.882Z,75.18
2023-04-01T01:46:17.895Z,75.32
2023-04-01T01:48:51.716Z,75.34
2023-04-01T01:51:23.750Z,75.60
2023-04-01T01:53:55.304Z,74.76
2023-04-01T01:56:28.705Z,75.22
2023-04-01T01:59:03.759Z,74.80
2023-04-01T02:01:38.549Z,74.45
2023-04-01T02:04:11.390Z,74.80
2023-04-01T02:06:47.498Z,74.54
2023-04-01T02:09:19.772Z,74.67
2023-04-01T02:11:53.570Z,74.34
2023-04-01T02:14:27.061Z,74.64
2023-04-01T02:17:18.043Z,74.20
2023-04-01T02:20:00.311Z,74.66
2023-04-01T02:22:36.784Z,74.21
2023-04-01T02:25:10.281Z,74.20
2023-04-01T02:27:43.800Z,74.08
2023-04-01T02:30:16.375Z,74.36
2023-04-01T02:32:48.058Z,74.34
2023-04-01T02:35:19.934Z,74.23
2023-04-01T02:37:52.902Z,74.40
2023-04-01T02:40:24.334Z,74.43
2023-04-01T02:42:55.708Z,74.32
2023-04-01T02:45:27.182Z,74.46
2023-04-01T02:47:58.636Z,74.21
2023-04-01T02:50:30.007Z,74.03
2023-04-01T02:53:01.796Z,74.29
2023-04-01T02:55:34.258Z,74.08
2023-04-01T02:58:05.762Z,74.09
2023-04-01T03:00:37.212Z,74.05
2023-04-01T03:03:09.187Z,74.92
2023-04-01T03:05:40.855Z,74.69
2023-04-01T03:08:12.849Z,74.52
2023-04-01T03:10:44.256Z,74.56
2023-04-01T03:13:15.853Z,74.42
2023-04-01T03:15:47.207Z,74.31
2023-04-01T03:18:18.699Z,74.41
2023-04-01T03:20:50.085Z,74.51
2023-04-01T03:23:22.057Z,74.48
2023-04-01T03:25:53.507Z,74.74
2023-04-01T03:28:25.010Z,74.74
2023-04-01T03:30:56.436Z,74.89
2023-04-01T03:33:27.789Z,75.00
2023-04-01T03:35:59.529Z,75.52
2023-04-01T03:38:31.125Z,75.11
2023-04-01T03:41:03.028Z,75.00
2023-04-01T03:43:34.785Z,75.00
2023-04-01T03:46:06.326Z,75.18
2023-04-01T03:48:37.677Z,75.61
2023-04-01T03:51:09.403Z,75.64
2023-04-01T03:53:40.956Z,75.95
2023-04-01T03:56:12.460Z,76.38
2023-04-01T03:58:43.803Z,76.62
2023-04-01T04:01:22.846Z,76.79
2023-04-01T04:03:54.411Z,76.64
2023-04-01T04:06:26.245Z,77.01
2023-04-01T04:08:57.976Z,77.37
2023-04-01T04:11:31.530Z,77.48
2023-04-01T04:14:03.163Z,77.41
2023-04-01T04:16:37.450Z,77.29
2023-04-01T04:19:08.982Z,77.71
2023-04-01T04:21:41.129Z,77.63
2023-04-01T04:24:12.506Z,77.53
2023-04-01T04:26:43.844Z,77.39
2023-04-01T04:29:15.285Z,77.03
2023-04-01T04:31:46.678Z,77.14
2023-04-01T04:34:19.395Z,76.83
2023-04-01T04:36:51.050Z,76.84
2023-04-01T04:39:22.428Z,76.34
2023-04-01T04:41:53.748Z,76.72
2023-04-01T04:44:25.134Z,76.15
2023-04-01T04:46:58.393Z,76.13
2023-04-01T04:49:30.013Z,76.07
2023-04-01T04:52:01.363Z,75.60
2023-04-01T04:54:32.753Z,75.55
2023-04-01T04:57:04.551Z,75.39
2023-04-01T04:59:36.151Z,75.08
2023-04-01T05:02:07.597Z,75.06
2023-04-01T05:04:39.031Z,74.26
2023-04-01T05:07:10.742Z,74.56
2023-04-01T05:09:42.191Z,73.67
2023-04-01T05:12:14.003Z,73.42
2023-04-01T05:14:45.701Z,73.54
2023-04-01T05:17:17.117Z,72.71
2023-04-01T05:19:48.495Z,72.67
2023-04-01T05:22:19.810Z,72.18
2023-04-01T05:24:51.226Z,72.07
2023-04-01T05:27:22.719Z,72.09
2023-04-01T05:29:54.042Z,72.20
2023-04-01T05:32:25.689Z,71.70
2023-04-01T05:34:57.114Z,72.10
2023-04-01T05:37:28.457Z,71.87
2023-04-01T05:39:59.896Z,71.36
2023-04-01T05:42:31.257Z,71.38
2023-04-01T05:45:02.673Z,71.02
2023-04-01T05:47:34.096Z,70.76
2023-04-01T05:50:05.989Z,70.98
2023-04-01T05:52:37.649Z,70.69
2023-04-01T05:55:09.317Z,70.49
2023-04-01T05:57:40.875Z,70.22
2023-04-01T06:00:12.788Z,70.14
2023-04-01T06:02:44.300Z,70.74
2023-04-01T06:05:18.763Z,70.45
2023-04-01T06:07:51.929Z,70.26
2023-04-01T06:10:24.971Z,69.29
2023-04-01T06:13:19.100Z,68.85
2023-04-01T06:15:59.181Z,68.49
2023-04-01T06:18:49.397Z,68.29
2023-04-01T06:21:30.442Z,68.04
2023-04-01T06:24:17.186Z,67.88
2023-04-01T06:26:48.552Z,67.65
2023-04-01T06:29:22.931Z,67.34
2023-04-01T06:32:00.155Z,67.54
2023-04-01T06:34:50.576Z,67.62
2023-04-01T06:37:25.432Z,67.42
2023-04-01T06:40:06.827Z,67.06
2023-04-01T06:42:38.205Z,65.77
2023-04-01T06:45:24.932Z,66.16
2023-04-01T06:47:59.422Z,65.65
2023-04-01T06:50:31.082Z,65.32
2023-04-01T06:53:08.442Z,65.24
2023-04-01T06:55:48.382Z,65.15
2023-04-01T06:58:30.369Z,64.92
2023-04-01T07:01:09.369Z,63.87
2023-04-01T07:03:53.049Z,64.09
2023-04-01T07:06:37.617Z,63.63
2023-04-01T07:09:15.709Z,63.90
2023-04-01T07:11:47.579Z,63.62
2023-04-01T07:14:18.988Z,64.59
2023-04-01T07:17:09.895Z,63.97
2023-04-01T07:19:47.400Z,62.79
2023-04-01T07:22:18.778Z,61.88
2023-04-01T07:24:50.799Z,61.98
2023-04-01T07:27:22.420Z,61.93
2023-04-01T07:29:56.778Z,62.35
2023-04-01T07:32:34.862Z,61.61
2023-04-01T07:35:13.443Z,61.60
2023-04-01T07:37:56.716Z,61.63
2023-04-01T07:40:36.419Z,61.03
2023-04-01T07:43:18.648Z,60.70
2023-04-01T07:46:08.680Z,60.43
2023-04-01T07:48:48.402Z,60.11
2023-04-01T07:51:38.742Z,60.80
2023-04-01T07:54:17.274Z,60.37
2023-04-01T07:57:02.728Z,60.32
2023-04-01T07:59:37.991Z,60.01
2023-04-01T08:02:28.070Z,59.49
2023-04-01T08:05:15.340Z,59.51
2023-04-01T08:07:54.749Z,59.65
2023-04-01T08:10:37.858Z,59.30
2023-04-01T08:13:11.546Z,59.02
2023-04-01T08:15:42.888Z,58.83
2023-04-01T08:18:32.691Z,58.21
2023-04-01T08:21:06.656Z,58.08
2023-04-01T08:23:39.697Z,58.41
2023-04-01T08:26:17.760Z,57.93
2023-04-01T08:28:58.390Z,58.42
2023-04-01T08:31:35.771Z,57.92
2023-04-01T08:34:12.655Z,56.89
2023-04-01T08:36:45.930Z,56.64
2023-04-01T08:39:19.296Z,56.92
2023-04-01T08:41:53.878Z,56.73
2023-04-01T08:44:37.139Z,56.04
2023-04-01T08:47:21.410Z,55.83
2023-04-01T08:50:11.462Z,56.25
2023-04-01T08:52:47.692Z,55.68
2023-04-01T08:55:34.532Z,55.46
2023-04-01T08:58:26.401Z,55.69
2023-04-01T09:01:03.930Z,55.89
2023-04-01T09:03:45.398Z,55.44
2023-04-01T09:06:23.081Z,55.67
2023-04-01T09:09:15.320Z,55.82
2023-04-01T09:11:56.170Z,55.43
2023-04-01T09:14:30.320Z,53.28
2023-04-01T09:17:04.401Z,54.07
2023-04-01T09:19:41.912Z,53.29
2023-04-01T09:22:16.095Z,54.16
2023-04-01T09:25:06.527Z,54.35
2023-04-01T09:27:37.854Z,52.99
2023-04-01T09:30:11.982Z,53.87
2023-04-01T09:32:52.416Z,53.37
2023-04-01T09:35:25.811Z,52.95
2023-04-01T09:38:15.773Z,52.17
2023-04-01T09:40:59.348Z,52.41
2023-04-01T09:43:45.978Z,51.50
2023-04-01T09:46:26.445Z,51.24
2023-04-01T09:49:07.150Z,51.21
2023-04-01T09:52:04.906Z,50.96
2023-04-01T09:54:51.492Z,51.58
2023-04-01T09:57:29.020Z,50.20
2023-04-01T10:00:19.057Z,50.95
2023-04-01T10:02:56.658Z,51.42
2023-04-01T10:05:37.006Z,51.32
2023-04-01T10:08:11.158Z,50.85
2023-04-01T10:10:55.403Z,50.96
2023-04-01T10:13:45.176Z,50.54
2023-04-01T10:16:31.948Z,50.76
2023-04-01T10:19:06.258Z,50.68
2023-04-01T10:21:56.347Z,50.09
2023-04-01T10:24:27.646Z,51.04
2023-04-01T10:27:10.766Z,50.96
2023-04-01T10:29:48.154Z,51.22
2023-04-01T10:32:29.217Z,51.52
2023-04-01T10:35:10.118Z,51.35
2023-04-01T10:37:41.486Z,52.19
2023-04-01T10:40:31.639Z,54.14
2023-04-01T10:43:22.369Z,56.04
2023-04-01T10:46:14.844Z,55.01
2023-04-01T10:48:49.722Z,56.12
2023-04-01T10:51:45.701Z,56.70
2023-04-01T10:54:35.572Z,59.31
2023-04-01T10:57:24.693Z,60.13
2023-04-01T11:00:05.162Z,63.09
2023-04-01T11:02:36.564Z,63.93
2023-04-01T11:05:19.449Z,64.60
2023-04-01T11:08:10.852Z,64.76
2023-04-01T11:10:48.087Z,63.23
2023-04-01T11:13:22.587Z,62.74
2023-04-01T11:16:13.297Z,62.69
2023-04-01T11:19:00.431Z,61.95
2023-04-01T11:21:50.662Z,61.93
2023-04-01T11:24:42.388Z,62.25
2023-04-01T11:27:23.923Z,63.59
2023-04-01T11:30:00.353Z,64.16
2023-04-01T11:32:47.314Z,63.41
2023-04-01T11:35:22.140Z,64.65
2023-04-01T11:37:56.249Z,66.03
2023-04-01T11:40:41.746Z,67.05
2023-04-01T11:43:26.162Z,68.33
2023-04-01T11:46:20.234Z,70.73
2023-04-01T11:48:52.005Z,70.38
2023-04-01T11:51:34.380Z,71.89
2023-04-01T11:54:17.633Z,71.59
2023-04-01T11:56:49.091Z,75.09
2023-04-01T11:59:26.342Z,73.55
2023-04-01T12:01:57.680Z,75.90
2023-04-01T12:04:41.170Z,73.92
2023-04-01T12:07:15.401Z,73.53
2023-04-01T12:10:05.892Z,76.05
2023-04-01T12:12:54.014Z,76.90
2023-04-01T12:15:56.175Z,76.77
2023-04-01T12:18:49.669Z,78.22
2023-04-01T12:21:27.148Z,79.02
2023-04-01T12:24:10.659Z,77.89
2023-04-01T12:26:48.250Z,75.01
2023-04-01T12:29:23.955Z,75.60
2023-04-01T12:32:07.411Z,75.90
2023-04-01T12:34:44.985Z,76.41
2023-04-01T12:37:42.422Z,75.99
2023-04-01T12:40:32.163Z,74.90
2023-04-01T12:43:22.769Z,75.67
2023-04-01T12:45:54.175Z,74.31
2023-04-01T12:48:44.405Z,75.52
2023-04-01T12:51:28.073Z,74.25
2023-04-01T12:54:18.318Z,72.86
2023-04-01T12:57:05.717Z,74.71
2023-04-01T12:59:39.877Z,73.52
2023-04-01T13:02:11.324Z,73.70
2023-04-01T13:05:00.729Z,72.82
2023-04-01T13:07:39.078Z,73.87
2023-04-01T13:10:10.414Z,75.07
2023-04-01T13:12:59.869Z,75.01
2023-04-01T13:15:31.506Z,76.33
2023-04-01T13:18:15.431Z,77.77
2023-04-01T13:21:28.243Z,76.48
2023-04-01T13:24:02.511Z,77.78
2023-04-01T13:26:39.807Z,78.09
2023-04-01T13:29:14.775Z,78.19
2023-04-01T13:31:47.189Z,79.64
2023-04-01T13:34:30.647Z,79.81
2023-04-01T13:37:02.597Z,79.70
2023-04-01T13:39:43.754Z,78.43
2023-04-01T13:42:16.221Z,77.71
2023-04-01T13:44:53.489Z,77.77
2023-04-01T13:47:33.906Z,76.42
2023-04-01T13:50:17.429Z,76.86
2023-04-01T13:52:48.755Z,76.28
2023-04-01T13:55:52.247Z,77.36
2023-04-01T13:58:50.239Z,76.43
2023-04-01T14:01:30.452Z,75.84
2023-04-01T14:04:15.400Z,74.58
2023-04-01T14:06:58.743Z,73.96
2023-04-01T14:09:34.434Z,73.78
2023-04-01T14:12:11.258Z,72.60
2023-04-01T14:15:05.681Z,72.37
2023-04-01T14:17:37.183Z,72.89
2023-04-01T14:20:23.754Z,71.71
2023-04-01T14:23:13.896Z,72.93
2023-04-01T14:26:04.099Z,72.72
2023-04-01T14:28:54.388Z,72.88
2023-04-01T14:31:28.800Z,73.57
2023-04-01T14:34:18.275Z,75.39
2023-04-01T14:36:55.064Z,75.42
2023-04-01T14:39:32.165Z,74.90
2023-04-01T14:42:24.499Z,75.45
2023-04-01T14:45:08.167Z,76.54
2023-04-01T14:47:58.054Z,77.45
2023-04-01T14:50:30.233Z,77.92
2023-04-01T14:53:26.000Z,76.90
2023-04-01T14:55:58.231Z,78.90
2023-04-01T14:58:43.919Z,79.15
2023-04-01T15:01:43.380Z,78.94
2023-04-01T15:04:23.971Z,77.83
2023-04-01T15:07:01.916Z,77.67
2023-04-01T15:09:39.983Z,78.20
2023-04-01T15:12:17.538Z,75.79
2023-04-01T15:14:48.856Z,73.75
2023-04-01T15:17:39.989Z,74.06
2023-04-01T15:20:24.593Z,73.89
2023-04-01T15:23:16.882Z,72.13
2023-04-01T15:26:20.841Z,70.67
2023-04-01T15:29:11.019Z,71.33
2023-04-01T15:32:02.753Z,70.97
2023-04-01T15:34:40.782Z,71.36
2023-04-01T15:37:23.976Z,71.20
2023-04-01T15:40:02.168Z,70.55
2023-04-01T15:42:39.686Z,68.57
2023-04-01T15:45:11.122Z,67.56
2023-04-01T15:48:02.981Z,66.83
2023-04-01T15:50:55.017Z,64.14
2023-04-01T15:53:32.450Z,62.28
2023-04-01T15:56:23.857Z,61.50
2023-04-01T15:59:01.394Z,62.09
2023-04-01T16:01:52.136Z,60.43
2023-04-01T16:04:42.029Z,60.70
2023-04-01T16:07:13.353Z,60.36
2023-04-01T16:09:53.479Z,61.46
2023-04-01T16:12:31.964Z,60.26
2023-04-01T16:15:04.355Z,60.95
2023-04-01T16:17:45.234Z,61.22
2023-04-01T16:20:38.947Z,61.37
2023-04-01T16:23:30.258Z,62.72
2023-04-01T16:26:17.624Z,62.55
2023-04-01T16:28:58.395Z,62.74
2023-04-01T16:31:37.030Z,63.76
2023-04-01T16:34:21.634Z,64.07
2023-04-01T16:36:56.052Z,64.37
2023-04-01T16:39:30.299Z,64.43
2023-04-01T16:42:08.609Z,64.71
2023-04-01T16:44:51.043Z,63.90
2023-04-01T16:47:25.565Z,63.80
2023-04-01T16:50:05.938Z,63.90
2023-04-01T16:52:49.024Z,62.85
2023-04-01T16:55:21.958Z,63.22
2023-04-01T16:58:02.740Z,62.72
2023-04-01T17:00:52.598Z,63.33
2023-04-01T17:03:31.282Z,62.84
2023-04-01T17:06:13.200Z,62.72
2023-04-01T17:08:53.842Z,62.32
2023-04-01T17:11:34.036Z,62.83
2023-04-01T17:14:05.359Z,63.51
2023-04-01T17:16:45.962Z,63.66
2023-04-01T17:19:23.898Z,63.45
2023-04-01T17:22:02.621Z,63.54
2023-04-01T17:24:43.811Z,63.23
2023-04-01T17:27:24.468Z,63.24
2023-04-01T17:29:55.975Z,63.40
2023-04-01T17:32:27.369Z,63.27
2023-04-01T17:35:08.664Z,63.00
2023-04-01T17:37:43.121Z,63.54
2023-04-01T17:40:29.902Z,63.39
2023-04-01T17:43:09.762Z,63.06
2023-04-01T17:45:47.344Z,63.33
2023-04-01T17:48:28.251Z,63.94
2023-04-01T17:51:06.605Z,63.56
2023-04-01T17:53:37.937Z,64.25
2023-04-01T17:56:28.116Z,63.68
2023-04-01T17:59:02.523Z,63.45
2023-04-01T18:01:37.183Z,63.35
2023-04-01T18:04:11.587Z,63.70
2023-04-01T18:07:11.687Z,63.63
2023-04-01T18:09:49.285Z,63.89
2023-04-01T18:12:20.703Z,64.24
2023-04-01T18:15:12.026Z,65.06
2023-04-01T18:17:46.730Z,65.27
2023-04-01T18:20:18.106Z,65.92
2023-04-01T18:22:58.234Z,65.55
2023-04-01T18:25:29.583Z,66.83
2023-04-01T18:28:07.062Z,67.44
2023-04-01T18:30:40.472Z,68.08
2023-04-01T18:33:20.827Z,68.13
2023-04-01T18:36:15.841Z,68.99
2023-04-01T18:38:51.431Z,69.25
2023-04-01T18:41:28.009Z,68.52
2023-04-01T18:44:07.001Z,69.30
2023-04-01T18:46:57.207Z,67.56
2023-04-01T18:49:31.566Z,68.32
2023-04-01T18:52:18.207Z,68.81
2023-04-01T18:55:01.745Z,69.31
2023-04-01T18:57:42.361Z,69.85
2023-04-01T19:00:23.401Z,69.36
2023-04-01T19:03:04.000Z,69.50
2023-04-01T19:05:39.033Z,69.90
2023-04-01T19:08:18.388Z,70.31
2023-04-01T19:11:00.525Z,70.65
2023-04-01T19:13:40.974Z,70.49
2023-04-01T19:16:12.653Z,70.66
2023-04-01T19:18:50.296Z,71.18
2023-04-01T19:21:27.859Z,71.50
2023-04-01T19:23:59.504Z,71.60
2023-04-01T19:26:31.178Z,71.57
2023-04-01T19:29:25.034Z,71.99
2023-04-01T19:31:56.564Z,72.09
2023-04-01T19:34:46.589Z,72.04
2023-04-01T19:37:18.291Z,72.52
2023-04-01T19:40:08.457Z,72.27
2023-04-01T19:42:41.400Z,72.54
2023-04-01T19:45:16.570Z,72.86
2023-04-01T19:47:47.968Z,73.06
2023-04-01T19:50:36.790Z,72.83
2023-04-01T19:53:20.702Z,73.33
2023-04-01T19:56:22.708Z,73.45
2023-04-01T19:59:01.476Z,73.57
2023-04-01T20:01:47.538Z,73.46
2023-04-01T20:04:26.857Z,73.58
2023-04-01T20:07:03.577Z,73.85
2023-04-01T20:09:46.689Z,74.16
2023-04-01T20:12:37.249Z,74.56
2023-04-01T20:15:31.185Z,74.61
2023-04-01T20:18:13.778Z,74.30
2023-04-01T20:21:17.336Z,74.52
2023-04-01T20:23:48.701Z,74.49
2023-04-01T20:26:22.114Z,74.30
2023-04-01T20:29:08.828Z,74.56
2023-04-01T20:31:46.417Z,74.62
2023-04-01T20:34:37.009Z,74.75
2023-04-01T20:37:18.997Z,74.66
2023-04-01T20:40:08.941Z,74.64
2023-04-01T20:42:40.362Z,74.66
2023-04-01T20:45:28.198Z,74.04
2023-04-01T20:47:59.539Z,74.58
2023-04-01T20:50:32.037Z,74.37
2023-04-01T20:53:18.565Z,74.19
2023-04-01T20:56:07.933Z,74.74
2023-04-01T20:58:48.523Z,74.92
2023-04-01T21:01:38.771Z,74.74
2023-04-01T21:04:16.459Z,74.24
2023-04-01T21:07:01.082Z,74.50
2023-04-01T21:09:48.791Z,74.73
2023-04-01T21:12:32.613Z,74.29
2023-04-01T21:15:22.766Z,73.87
2023-04-01T21:18:13.223Z,73.76
2023-04-01T21:20:48.321Z,74.15
2023-04-01T21:23:38.421Z,74.33
2023-04-01T21:26:19.029Z,74.44
2023-04-01T21:28:57.431Z,73.87
2023-04-01T21:31:41.289Z,74.17
2023-04-01T21:34:31.723Z,73.93
2023-04-01T21:37:03.072Z,73.61
2023-04-01T21:39:53.568Z,74.16
2023-04-01T21:42:35.067Z,74.65
2023-04-01T21:45:09.257Z,74.18
2023-04-01T21:47:59.502Z,73.64
2023-04-01T21:50:42.959Z,73.67
2023-04-01T21:53:17.298Z,74.01
2023-04-01T21:55:48.604Z,73.87
2023-04-01T21:58:38.947Z,74.19
2023-04-01T22:01:29.101Z,73.63
2023-04-01T22:04:06.489Z,73.46
2023-04-01T22:06:41.411Z,73.92
2023-04-01T22:09:18.949Z,73.82
2023-04-01T22:11:57.708Z,73.97
2023-04-01T22:14:43.126Z,73.98
2023-04-01T22:17:24.325Z,74.04
2023-04-01T22:20:11.228Z,73.78
2023-04-01T22:23:01.586Z,73.95
2023-04-01T22:25:58.813Z,73.59
2023-04-01T22:28:37.821Z,73.26
2023-04-01T22:31:11.765Z,73.07
2023-04-01T22:34:02.138Z,73.00
2023-04-01T22:36:53.708Z,72.76
2023-04-01T22:39:29.643Z,73.11
2023-04-01T22:42:05.499Z,72.70
2023-04-01T22:44:42.812Z,72.74
2023-04-01T22:47:21.614Z,72.96
2023-04-01T22:50:00.572Z,72.87
2023-04-01T22:52:38.738Z,72.44
2023-04-01T22:55:16.791Z,72.20
2023-04-01T22:58:00.556Z,72.33
2023-04-01T23:00:44.267Z,72.43
2023-04-01T23:03:15.600Z,72.69
2023-04-01T23:05:51.807Z,72.32
2023-04-01T23:08:23.132Z,72.75
2023-04-01T23:10:59.670Z,72.26
2023-04-01T23:13:35.157Z,72.29
2023-04-01T23:16:08.080Z,72.51
2023-04-01T23:18:51.627Z,72.07
2023-04-01T23:21:29.202Z,72.31
2023-04-01T23:24:20.787Z,72.41
2023-04-01T23:26:52.343Z,72.17
2023-04-01T23:29:24.400Z,72.33
2023-04-01T23:31:58.857Z,72.20
2023-04-01T23:34:35.447Z,72.63
2023-04-01T23:37:12.545Z,72.31
2023-04-01T23:39:46.484Z,72.46
2023-04-01T23:42:44.212Z,72.31
2023-04-01T23:45:18.641Z,72.51
2023-04-01T23:47:51.502Z,72.51
2023-04-01T23:50:26.569Z,72.51
2023-04-01T23:53:12.038Z,72.44
2023-04-01T23:55:43.881Z,72.91
2023-04-01T23:58:24.533Z,72.70
